Time;durP1;ratioP1;P1;durP2;ratioP2;P2;SDS_P1;SDS_P2;PMS_P1;PMS_P2;Temp;Humidity;BMP_temperature;BMP_pressure;BME280_temperature;BME280_humidity;BME280_pressure;Samples;Min_cycle;Max_cycle;Signal;HPM_P1;HPM_P2
2022/07/24 00:01:17;;;;;;;;;;;22.50;99.90;;;21.49;91.01;95990.47;10415189;28;1955;-68
2022/07/24 00:06:20;;;;;;;;;;;22.40;99.90;;;21.44;90.92;95989.88;10406625;28;1766;-68
2022/07/24 00:11:23;;;;;;;;;;;22.30;99.90;;;21.47;91.66;96000.94;10416053;28;1896;-66
2022/07/24 00:16:26;;;;;;;;;;;22.30;99.90;;;21.49;90.84;95993.19;10406671;28;1918;-66
2022/07/24 00:21:29;;;;;;;;;;;22.30;99.90;;;21.54;91.04;95995.72;10404190;28;1785;-67
2022/07/24 00:26:32;;;;;;;;;;;22.30;99.90;;;21.56;90.39;95990.72;10411426;28;1922;-71
2022/07/24 00:31:36;;;;;;;;;;;22.40;99.90;;;21.54;90.70;95984.00;10407748;28;1820;-68
2022/07/24 00:36:41;;;;;;;;;;;22.40;99.90;;;21.48;90.42;95975.19;10408956;28;1921;-72
2022/07/24 00:41:46;;;;;;;;;;;22.30;99.90;;;21.37;90.80;95979.50;10400276;28;2156;-67
2022/07/24 00:46:49;;;;;;;;;;;22.20;99.90;;;21.41;89.37;95991.38;10409210;28;1906;-68
2022/07/24 00:51:52;;;;;;;;;;;22.20;99.90;;;21.44;89.50;95984.41;10397852;28;2346;-67
2022/07/24 00:56:55;;;;;;;;;;;22.20;99.90;;;21.40;88.96;95989.78;10405892;28;1914;-67
2022/07/24 01:01:58;;;;;;;;;;;22.20;99.90;;;21.40;89.43;95983.50;10409332;28;1905;-67
2022/07/24 01:07:02;;;;;;;;;;;22.10;99.90;;;21.46;88.14;95988.41;10418990;28;1962;-67
2022/07/24 01:12:06;;;;;;;;;;;22.10;99.90;;;21.49;88.03;95985.00;10405373;28;2215;-68
2022/07/24 01:17:09;;;;;;;;;;;22.20;99.90;;;21.44;87.56;95984.41;10407939;28;2348;-68
2022/07/24 01:22:32;;;;;;;;;;;22.20;99.90;;;21.47;87.01;95987.28;10410091;28;1954;-68
2022/07/24 01:27:35;;;;;;;;;;;22.20;99.90;;;21.41;87.76;95985.09;10395453;28;1937;-67
2022/07/24 01:32:43;;;;;;;;;;;22.20;99.90;;;21.34;88.04;95976.66;10408305;28;1932;-68
2022/07/24 01:37:58;;;;;;;;;;;22.10;99.90;;;21.29;89.46;95983.13;10405362;28;1991;-67
2022/07/24 01:43:12;;;;;;;;;;;22.00;99.90;;;21.28;89.62;95978.75;10406737;28;1948;-68
2022/07/24 01:48:16;;;;;;;;;;;22.10;99.90;;;21.33;90.16;95973.13;10408584;28;1918;-67
2022/07/24 01:53:19;;;;;;;;;;;22.10;99.90;;;21.23;90.92;95976.22;10404206;28;1969;-71
2022/07/24 01:58:23;;;;;;;;;;;22.00;99.90;;;21.32;90.94;95971.53;10406443;28;1981;-66
2022/07/24 02:03:26;;;;;;;;;;;22.10;99.90;;;21.25;91.75;95976.72;10399847;28;1972;-67
2022/07/24 02:08:29;;;;;;;;;;;22.10;99.90;;;21.08;93.36;95976.88;10405311;28;1996;-67
2022/07/24 02:13:33;;;;;;;;;;;22.00;99.90;;;20.97;94.70;95971.81;10405671;28;2052;-67
2022/07/24 02:18:40;;;;;;;;;;;21.90;99.90;;;20.78;96.52;95972.28;10401834;28;2050;-70
2022/07/24 02:23:43;;;;;;;;;;;21.80;99.90;;;20.70;97.83;95970.44;10406651;28;2026;-66
2022/07/24 02:28:46;;;;;;;;;;;21.70;99.90;;;20.60;98.19;95967.28;10406507;28;1994;-75
2022/07/24 02:33:49;;;;;;;;;;;21.50;99.90;;;20.54;97.98;95957.72;10410292;28;1688;-69
2022/07/24 02:38:52;;;;;;;;;;;21.40;99.90;;;20.44;98.08;95965.13;10411876;28;1995;-65
2022/07/24 02:43:56;;;;;;;;;;;21.40;99.90;;;20.39;97.75;95962.59;10415292;28;1912;-66
2022/07/24 02:48:59;;;;;;;;;;;21.40;99.90;;;20.31;98.68;95968.13;10410499;28;2077;-67
2022/07/24 02:54:02;;;;;;;;;;;21.20;99.90;;;20.24;99.26;95968.66;10413676;28;1975;-66
2022/07/24 02:59:07;;;;;;;;;;;21.20;99.90;;;20.22;98.86;95973.63;10413261;28;2040;-68
2022/07/24 03:04:10;;;;;;;;;;;21.10;99.90;;;20.15;99.91;95978.81;10409714;28;1924;-66
2022/07/24 03:09:13;;;;;;;;;;;21.10;99.90;;;20.03;100.00;95981.44;10412559;28;2063;-65
2022/07/24 03:14:16;;;;;;;;;;;21.00;99.90;;;19.95;100.00;95974.91;10415109;28;1916;-69
2022/07/24 03:19:20;;;;;;;;;;;20.90;99.90;;;19.82;100.00;95976.72;10411262;28;1981;-69
2022/07/24 03:24:22;;;;;;;;;;;20.80;99.90;;;19.71;100.00;95975.47;10414759;28;2079;-67
2022/07/24 03:29:25;;;;;;;;;;;20.80;99.90;;;19.61;100.00;95968.47;10412619;28;1908;-68
2022/07/24 03:34:28;;;;;;;;;;;20.60;99.90;;;19.53;100.00;95976.63;10409950;28;2076;-67
2022/07/24 03:39:31;;;;;;;;;;;20.50;99.90;;;19.43;100.00;95967.69;10408603;28;1944;-67
2022/07/24 03:44:34;;;;;;;;;;;20.40;99.90;;;19.36;100.00;95972.03;10403103;28;1992;-68
2022/07/24 03:49:40;;;;;;;;;;;20.40;99.90;;;19.37;100.00;95969.00;10415721;28;1955;-70
2022/07/24 03:54:43;;;;;;;;;;;20.40;99.90;;;19.30;100.00;95978.78;10414759;28;1927;-67
2022/07/24 03:59:46;;;;;;;;;;;20.20;99.90;;;19.32;100.00;95985.50;10401087;28;1936;-67
2022/07/24 04:04:49;;;;;;;;;;;20.20;99.90;;;19.27;100.00;95982.94;10417846;28;2007;-67
2022/07/24 04:09:52;;;;;;;;;;;20.10;99.90;;;19.31;100.00;95997.53;10411352;28;1962;-66
2022/07/24 04:14:55;;;;;;;;;;;20.10;99.90;;;19.45;100.00;95995.41;10416385;28;2013;-69
2022/07/24 04:19:59;;;;;;;;;;;20.20;99.90;;;19.54;100.00;95994.63;10409701;28;2033;-67
2022/07/24 04:25:02;;;;;;;;;;;20.30;99.90;;;19.70;100.00;95999.22;10406384;28;1980;-67
2022/07/24 04:30:05;;;;;;;;;;;20.40;99.90;;;19.93;100.00;96007.97;10408812;28;2134;-67
2022/07/24 04:35:09;;;;;;;;;;;20.50;99.90;;;20.04;100.00;96010.31;10403152;28;2059;-68
2022/07/24 04:40:12;;;;;;;;;;;20.70;99.90;;;20.27;100.00;96008.91;10412844;28;2025;-68
2022/07/24 04:45:16;;;;;;;;;;;20.80;99.90;;;20.18;100.00;96011.72;10409605;28;1969;-67
2022/07/24 04:50:20;;;;;;;;;;;21.00;99.90;;;20.40;100.00;96013.34;10408865;28;1910;-67
2022/07/24 04:55:23;;;;;;;;;;;21.00;99.90;;;20.88;100.00;96017.56;10403987;28;2009;-69
2022/07/24 05:00:26;;;;;;;;;;;21.20;99.90;;;21.25;98.70;96017.72;10409893;28;1866;-65
2022/07/24 05:05:30;;;;;;;;;;;21.50;99.90;;;21.51;97.05;96012.81;10403360;28;1900;-67
2022/07/24 05:10:33;;;;;;;;;;;21.80;99.90;;;21.34;98.32;96028.59;10409334;28;1935;-67
2022/07/24 05:15:36;;;;;;;;;;;22.00;99.90;;;21.56;97.25;96030.94;10410007;28;1910;-66
2022/07/24 05:20:39;;;;;;;;;;;22.10;99.90;;;22.24;91.96;96030.50;10410579;28;1919;-69
2022/07/24 05:25:43;;;;;;;;;;;22.40;99.90;;;22.31;91.71;96031.53;10400898;28;1976;-71
2022/07/24 05:30:51;;;;;;;;;;;22.80;99.90;;;22.12;93.33;96032.09;10409077;28;1996;-75
2022/07/24 05:35:54;;;;;;;;;;;22.70;99.90;;;22.29;92.09;96030.28;10405484;28;1996;-68
2022/07/24 05:40:57;;;;;;;;;;;22.80;99.90;;;22.89;88.17;96025.91;10412488;28;2047;-68
2022/07/24 05:46:00;;;;;;;;;;;23.10;99.90;;;22.92;86.03;96033.44;10416627;28;1745;-68
2022/07/24 05:51:04;;;;;;;;;;;23.40;99.90;;;23.45;84.62;96036.91;10420093;28;1886;-68
2022/07/24 05:56:07;;;;;;;;;;;23.60;99.90;;;23.76;81.48;96038.97;10410599;28;1995;-67
2022/07/24 06:01:10;;;;;;;;;;;23.90;99.90;;;23.63;81.60;96030.00;10406543;28;1956;-67
2022/07/24 06:06:17;;;;;;;;;;;24.10;99.90;;;23.78;81.06;96027.63;10412555;28;1961;-67
2022/07/24 06:11:22;;;;;;;;;;;24.20;99.90;;;23.99;77.72;96018.00;10421738;28;2049;-67
2022/07/24 06:16:27;;;;;;;;;;;24.20;99.90;;;24.20;74.20;96019.66;10418509;28;1997;-69
2022/07/24 06:21:30;;;;;;;;;;;24.40;99.90;;;24.20;72.34;96022.41;10423150;28;2064;-69
2022/07/24 06:26:33;;;;;;;;;;;24.70;99.90;;;24.16;71.47;96021.53;10424127;28;1906;-68
2022/07/24 06:31:56;;;;;;;;;;;24.70;99.90;;;24.07;71.80;96018.16;10406083;28;1800;-68
2022/07/24 06:37:00;;;;;;;;;;;24.60;99.90;;;24.38;70.89;96028.38;10405808;28;1952;-67
2022/07/24 06:42:03;;;;;;;;;;;24.70;99.90;;;23.87;72.91;96026.31;10411578;28;1948;-68
2022/07/24 06:47:06;;;;;;;;;;;24.90;99.90;;;24.15;69.90;96019.94;10430324;28;2023;-68
2022/07/24 06:52:09;;;;;;;;;;;24.90;99.90;;;24.77;67.96;96016.31;10400464;28;2219;-68
2022/07/24 06:57:12;;;;;;;;;;;25.10;99.90;;;25.34;64.47;96014.00;10395612;28;1910;-67
2022/07/24 07:02:15;;;;;;;;;;;25.50;99.90;;;25.07;64.75;96013.06;10400278;28;2006;-67
2022/07/24 07:07:18;;;;;;;;;;;25.60;99.90;;;25.59;63.01;96009.00;10393325;28;1850;-68
2022/07/24 07:12:22;;;;;;;;;;;25.90;99.90;;;25.55;61.44;96017.16;10399034;28;1835;-68
2022/07/24 07:17:25;;;;;;;;;;;26.00;99.90;;;26.33;58.70;96020.53;10399026;28;1914;-72
2022/07/24 07:22:28;;;;;;;;;;;26.40;99.90;;;25.93;57.00;96012.78;10404055;28;1869;-68
2022/07/24 07:27:31;;;;;;;;;;;26.80;99.90;;;25.73;54.97;96020.28;10400576;28;1887;-68
2022/07/24 07:32:34;;;;;;;;;;;26.20;99.90;;;25.93;55.35;96012.78;10403406;28;2194;-73
2022/07/24 07:37:37;;;;;;;;;;;26.50;99.90;;;25.86;54.52;96018.94;10395063;28;1972;-70
2022/07/24 07:42:41;;;;;;;;;;;26.50;99.90;;;26.24;51.63;96013.69;10401089;28;1758;-70
2022/07/24 07:47:44;;;;;;;;;;;26.80;99.90;;;26.34;51.08;96011.13;10398507;28;2348;-69
2022/07/24 07:52:47;;;;;;;;;;;26.80;99.90;;;26.68;49.76;96019.53;10406948;28;2064;-70
2022/07/24 07:57:51;;;;;;;;;;;27.00;99.90;;;26.91;48.18;96016.69;10405153;28;1910;-70
2022/07/24 08:03:09;;;;;;;;;;;27.30;99.90;;;26.85;46.65;96021.75;10404442;28;2229;-70
2022/07/24 08:08:12;;;;;;;;;;;27.60;99.90;;;26.75;47.09;96021.59;10394919;28;1886;-72
2022/07/24 08:13:17;;;;;;;;;;;27.50;99.90;;;27.55;47.45;96025.00;10394618;28;1873;-71
2022/07/24 08:18:21;;;;;;;;;;;27.80;99.90;;;27.39;45.93;96020.50;10396194;28;1980;-76
2022/07/24 08:23:24;;;;;;;;;;;28.10;99.90;;;27.41;45.03;96023.66;10396690;28;1817;-71
2022/07/24 08:28:27;;;;;;;;;;;28.00;99.90;;;27.35;45.25;96018.84;10400625;28;1893;-70
2022/07/24 08:33:31;;;;;;;;;;;28.10;99.90;;;27.46;44.47;96017.81;10427645;28;1908;-73
2022/07/24 08:38:35;;;;;;;;;;;28.00;99.90;;;27.55;42.81;96022.22;10411874;28;2253;-70
2022/07/24 08:43:38;;;;;;;;;;;28.00;99.90;;;27.78;43.49;96014.63;10413203;28;2218;-73
2022/07/24 08:48:41;;;;;;;;;;;28.20;99.90;;;27.93;43.38;96012.78;10406298;28;1894;-73
2022/07/24 08:53:47;;;;;;;;;;;28.50;99.90;;;27.66;43.56;96017.63;10411531;28;1881;-70
2022/07/24 08:58:50;;;;;;;;;;;28.60;99.90;;;27.91;42.86;96015.16;10424771;28;1906;-70
2022/07/24 09:03:53;;;;;;;;;;;28.40;99.90;;;27.96;42.71;96012.06;10410197;28;1908;-70
2022/07/24 09:08:56;;;;;;;;;;;28.60;99.90;;;27.55;43.38;96000.16;10410175;28;1827;-72
2022/07/24 09:19:21;;;;;;;;;;;28.20;99.90;;;27.02;44.10;96012.09;10415016;28;2204;-70
2022/07/24 09:24:25;;;;;;;;;;;28.10;99.90;;;27.18;43.33;96004.47;10416001;28;1884;-70
2022/07/24 09:29:28;;;;;;;;;;;27.90;99.90;;;27.48;42.76;96001.69;10413826;28;1820;-70
2022/07/24 09:34:30;;;;;;;;;;;28.20;99.90;;;28.02;41.17;95999.47;10409546;28;1957;-70
2022/07/24 09:39:33;;;;;;;;;;;28.50;99.90;;;28.02;42.40;95996.72;10412701;28;1977;-72
2022/07/24 09:44:39;;;;;;;;;;;28.60;99.90;;;28.04;41.05;95997.13;10408531;28;1815;-70
2022/07/24 09:49:43;;;;;;;;;;;28.60;99.90;;;27.75;41.91;95998.84;10412884;28;1764;-70
2022/07/24 09:54:47;;;;;;;;;;;28.40;99.90;;;28.48;40.52;95991.59;10413924;28;1884;-71
2022/07/24 09:59:50;;;;;;;;;;;28.90;99.90;;;28.43;40.38;95991.16;10407347;28;1977;-71
2022/07/24 10:04:58;;;;;;;;;;;29.10;99.90;;;27.98;40.99;95987.59;10410790;28;1990;-70
2022/07/24 10:10:01;;;;;;;;;;;29.10;99.90;;;27.95;41.22;95991.91;10406030;28;1907;-70
2022/07/24 10:15:06;;;;;;;;;;;28.70;99.90;;;28.41;41.05;95979.69;10421028;28;1914;-68
2022/07/24 10:20:09;;;;;;;;;;;28.90;99.90;;;28.80;38.87;95985.47;10416255;28;1914;-71
2022/07/24 10:25:32;;;;;;;;;;;29.10;99.90;;;29.12;38.66;95968.25;10412605;28;1837;-71
2022/07/24 10:30:36;;;;;;;;;;;;;;;28.97;38.30;95970.97;10413316;28;1896;-73
2022/07/24 10:35:40;;;;;;;;;;;;;;;28.44;39.29;95971.44;10409013;28;1832;-70
2022/07/24 10:40:43;;;;;;;;;;;;;;;29.11;38.31;95955.59;10407816;28;1910;-70
2022/07/24 10:45:48;;;;;;;;;;;;;;;29.02;37.15;95956.75;10409755;28;1822;-71
2022/07/24 10:50:53;;;;;;;;;;;;;;;29.53;37.66;95944.69;10434370;28;1886;-72
2022/07/24 10:55:57;;;;;;;;;;;;;;;30.36;35.41;95946.34;10416814;28;2665;-72
2022/07/24 11:01:01;;;;;;;;;;;;;;;30.50;36.46;95930.88;10421802;28;1913;-72
2022/07/24 11:06:17;;;;;;;;;;;;;;;29.61;37.02;95943.53;10420234;28;1914;-73
2022/07/24 11:11:23;;;;;;;;;;;;;;;29.44;36.85;95943.44;10413319;28;1859;-72
2022/07/24 11:16:29;;;;;;;;;;;;;;;29.02;37.00;95926.31;10416791;28;1993;-70
2022/07/24 11:21:33;;;;;;;;;;;;;;;29.17;36.66;95929.94;10414125;28;1871;-72
2022/07/24 11:26:40;;;;;;;;;;;;;;;29.61;35.67;95928.88;10413318;28;1855;-71
2022/07/24 11:31:43;;;;;;;;;;;;;;;29.26;37.05;95924.00;10412728;28;2221;-71
2022/07/24 11:36:48;;;;;;;;;;;;;;;28.53;38.10;95924.84;10414096;28;1906;-73
2022/07/24 11:41:52;;;;;;;;;;;;;;;29.04;37.47;95923.94;10411630;28;1942;-70
2022/07/24 11:46:56;;;;;;;;;;;;;;;29.35;36.68;95910.59;10418751;28;1894;-70
2022/07/24 11:52:00;;;;;;;;;;;;;;;30.04;35.03;95899.22;10410106;28;2521;-70
2022/07/24 11:57:03;;;;;;;;;;;;;;;30.49;34.51;95907.13;10418361;28;1910;-71
2022/07/24 12:02:07;;;;;;;;;;;;;;;29.65;36.05;95903.94;10409593;28;1820;-70
2022/07/24 12:07:11;;;;;;;;;;;;;;;29.94;35.71;95896.44;10418675;28;1757;-70
2022/07/24 12:12:15;;;;;;;;;;;;;;;29.47;35.94;95896.38;10416722;28;1823;-70
2022/07/24 12:17:19;;;;;;;;;;;;;;;29.54;36.74;95890.88;10416890;28;1906;-74
2022/07/24 12:22:22;;;;;;;;;;;;;;;29.30;36.61;95891.59;10414532;28;1886;-70
2022/07/24 12:27:25;;;;;;;;;;;;;;;29.58;36.28;95886.16;10412272;28;1949;-70
2022/07/24 12:32:29;;;;;;;;;;;;;;;29.46;35.97;95875.44;10414397;28;1901;-71
2022/07/24 12:37:33;;;;;;;;;;;;;;;29.53;36.48;95878.22;10416322;28;1918;-72
2022/07/24 12:42:37;;;;;;;;;;;;;;;30.14;34.47;95881.00;10414757;28;1461;-68
2022/07/24 12:47:40;;;;;;;;;;;;;;;30.48;34.29;95867.50;10419808;28;1453;-70
2022/07/24 12:52:44;;;;;;;;;;;;;;;30.10;34.34;95860.84;10415809;28;1585;-68
2022/07/24 12:57:48;;;;;;;;;;;;;;;31.09;33.41;95847.84;10421587;28;1914;-71
2022/07/24 13:02:52;;;;;;;;;;;31.90;92.30;;;31.89;30.86;95849.72;10422124;28;1513;-70
2022/07/24 13:07:55;;;;;;;;;;;32.20;99.90;;;32.45;30.85;95836.47;10420408;28;1478;-71
2022/07/24 13:12:59;;;;;;;;;;;32.90;88.60;;;31.10;32.48;95844.63;10411779;28;1504;-72
2022/07/24 13:18:03;;;;;;;;;;;32.60;87.50;;;30.57;32.45;95837.34;10414184;28;1927;-70
2022/07/24 13:23:07;;;;;;;;;;;31.80;87.00;;;30.20;33.53;95837.84;10415169;28;1402;-70
2022/07/24 13:28:11;;;;;;;;;;;31.40;88.00;;;29.44;34.85;95819.63;10418631;28;1496;-70
2022/07/24 13:33:15;;;;;;;;;;;30.60;89.00;;;30.07;34.21;95812.50;10413891;28;1511;-70
2022/07/24 13:38:18;;;;;;;;;;;30.50;89.40;;;30.50;32.67;95811.63;10413593;28;2441;-70
2022/07/24 13:43:23;;;;;;;;;;;31.20;88.00;;;31.05;32.01;95808.19;10415837;28;1450;-70
2022/07/24 13:48:27;;;;;;;;;;;31.50;87.70;;;30.90;32.87;95802.72;10412444;28;1608;-70
2022/07/24 13:53:30;;;;;;;;;;;31.60;87.30;;;30.84;31.86;95790.47;10414934;28;1437;-74
2022/07/24 13:58:35;;;;;;;;;;;31.60;85.90;;;31.56;31.60;95796.38;10410857;28;1914;-71
2022/07/24 14:03:39;;;;;;;;;;;32.00;87.10;;;31.53;31.31;95786.06;10419728;28;1532;-72
2022/07/24 14:09:02;;;;;;;;;;;32.10;85.40;;;31.29;31.22;95785.06;10412271;28;1534;-70
2022/07/24 14:14:05;;;;;;;;;;;32.20;84.30;;;30.50;32.57;95781.88;10411003;28;1529;-71
2022/07/24 14:19:09;;;;;;;;;;;31.60;84.80;;;30.03;32.92;95769.31;10414131;28;1906;-72
2022/07/24 14:24:12;;;;;;;;;;;30.80;84.90;;;30.96;31.68;95755.91;10411919;28;1513;-70
2022/07/24 14:29:18;;;;;;;;;;;31.40;84.90;;;31.42;31.35;95757.56;10415468;28;1473;-69
2022/07/24 14:34:22;;;;;;;;;;;31.90;84.50;;;31.15;31.41;95758.16;10420899;28;1513;-70
2022/07/24 14:39:27;;;;;;;;;;;31.90;83.60;;;31.26;30.88;95751.78;10420450;28;1914;-71
2022/07/24 14:44:30;;;;;;;;;;;32.00;83.30;;;31.05;31.90;95750.72;10424391;28;1834;-71
2022/07/24 14:49:33;;;;;;;;;;;31.70;83.90;;;30.57;32.04;95753.34;10422064;28;1465;-70
2022/07/24 14:54:37;;;;;;;;;;;31.50;83.20;;;30.34;32.19;95754.59;10417289;28;1489;-70
2022/07/24 14:59:40;;;;;;;;;;;31.40;83.60;;;30.52;32.08;95751.75;10417271;28;1935;-70
2022/07/24 15:04:43;;;;;;;;;;;31.30;84.00;;;31.09;30.89;95745.13;10413486;28;1541;-70
2022/07/24 15:09:46;;;;;;;;;;;31.40;83.00;;;31.10;30.02;95743.91;10415619;28;1522;-70
2022/07/24 15:14:50;;;;;;;;;;;31.80;81.40;;;31.61;30.19;95734.00;10414791;28;1509;-70
2022/07/24 15:19:53;;;;;;;;;;;32.00;82.10;;;31.20;30.01;95729.97;10423000;28;1910;-72
2022/07/24 15:24:56;;;;;;;;;;;32.10;80.70;;;31.79;29.28;95723.53;10416897;28;1497;-72
2022/07/24 15:30:00;;;;;;;;;;;32.20;80.80;;;31.99;29.27;95710.59;10419740;28;1568;-71
2022/07/24 15:35:04;;;;;;;;;;;32.50;80.40;;;31.52;29.47;95712.25;10414390;28;1544;-73
2022/07/24 15:40:06;;;;;;;;;;;32.50;79.30;;;31.04;30.34;95701.13;10416192;28;1914;-71
2022/07/24 15:45:10;;;;;;;;;;;32.10;79.70;;;30.94;30.84;95697.25;10437570;28;1560;-71
2022/07/24 15:50:13;;;;;;;;;;;31.80;80.00;;;31.05;30.44;95688.81;10415766;28;1539;-71
2022/07/24 15:55:17;;;;;;;;;;;31.80;79.60;;;31.10;30.55;95689.19;10416850;28;1517;-69
2022/07/24 16:00:22;;;;;;;;;;;31.80;80.00;;;30.70;30.96;95681.56;10418303;28;1910;-71
2022/07/24 16:05:26;;;;;;;;;;;31.60;80.00;;;30.57;30.54;95681.22;10407657;28;1548;-69
2022/07/24 16:10:29;;;;;;;;;;;31.50;79.60;;;30.71;30.98;95675.59;10418866;28;1493;-71
2022/07/24 16:15:32;;;;;;;;;;;31.40;80.20;;;30.47;31.10;95659.84;10420478;28;1529;-71
2022/07/24 16:20:36;;;;;;;;;;;31.20;80.20;;;30.39;31.20;95664.66;10410180;28;1923;-70
2022/07/24 16:25:39;;;;;;;;;;;31.20;80.60;;;30.46;30.91;95658.28;10418444;28;1461;-72
2022/07/24 16:30:42;;;;;;;;;;;31.10;80.40;;;30.15;31.85;95658.06;10407981;28;1842;-70
2022/07/24 16:35:45;;;;;;;;;;;31.00;80.60;;;29.93;32.36;95651.00;10415601;28;1640;-71
2022/07/24 16:40:48;;;;;;;;;;;30.80;80.90;;;29.68;32.98;95651.88;10415736;28;1969;-70
2022/07/24 16:45:53;;;;;;;;;;;30.60;81.50;;;29.40;34.12;95657.47;10414854;28;1962;-70
2022/07/24 16:50:57;;;;;;;;;;;30.20;82.50;;;29.43;34.08;95651.91;10415123;28;1438;-70
2022/07/24 16:56:01;;;;;;;;;;;30.10;83.10;;;29.25;34.65;95648.38;10417075;28;1450;-70
2022/07/24 17:01:04;;;;;;;;;;;30.00;83.70;;;29.14;34.29;95653.13;10419761;28;1965;-71
2022/07/24 17:06:07;;;;;;;;;;;29.90;82.90;;;29.12;34.76;95650.75;10412086;28;1499;-70
2022/07/24 17:11:10;;;;;;;;;;;29.80;83.20;;;28.86;35.18;95656.66;10414198;28;1505;-71
2022/07/24 17:16:13;;;;;;;;;;;29.70;83.50;;;28.74;35.55;95646.78;10419077;28;1469;-71
2022/07/24 17:21:17;;;;;;;;;;;29.50;84.00;;;28.66;35.67;95647.97;10418747;28;1988;-71
2022/07/24 17:26:22;;;;;;;;;;;29.40;84.40;;;28.59;35.77;95648.75;10405543;28;1525;-70
2022/07/24 17:31:26;;;;;;;;;;;29.30;84.60;;;28.53;35.93;95650.31;10412656;28;1847;-70
2022/07/24 17:36:29;;;;;;;;;;;29.20;85.00;;;28.35;36.22;95655.81;10410143;28;1904;-71
2022/07/24 17:41:32;;;;;;;;;;;29.00;85.20;;;28.25;36.81;95653.78;10403937;28;1962;-71
2022/07/24 17:46:36;;;;;;;;;;;29.00;85.70;;;28.13;37.18;95654.16;10402617;28;1836;-71
2022/07/24 17:51:38;;;;;;;;;;;28.80;85.70;;;27.97;38.28;95646.19;10403262;28;1910;-71
2022/07/24 17:56:42;;;;;;;;;;;28.70;86.90;;;27.86;38.84;95642.59;10417905;28;1869;-72
2022/07/24 18:01:47;;;;;;;;;;;28.60;87.50;;;27.77;39.44;95640.19;10415245;28;1981;-71
2022/07/24 18:06:50;;;;;;;;;;;28.50;88.30;;;27.63;39.86;95648.38;10412148;28;1948;-71
2022/07/24 18:11:53;;;;;;;;;;;28.40;88.90;;;27.45;40.28;95643.56;10420115;28;1508;-71
2022/07/24 18:16:56;;;;;;;;;;;28.20;89.20;;;27.35;40.60;95636.00;10418251;28;1509;-71
2022/07/24 18:21:59;;;;;;;;;;;28.10;89.90;;;27.21;41.04;95641.44;10414700;28;1942;-73
2022/07/24 18:27:02;;;;;;;;;;;28.00;90.30;;;27.04;41.26;95640.13;10423249;28;1442;-70
2022/07/24 18:32:06;;;;;;;;;;;27.80;90.00;;;26.92;42.01;95637.66;10416427;28;1505;-70
2022/07/24 18:37:09;;;;;;;;;;;27.70;90.50;;;26.81;42.07;95643.09;10414198;28;1863;-70
2022/07/24 18:42:13;;;;;;;;;;;27.60;91.00;;;26.60;42.94;95637.41;10410616;28;1914;-71
2022/07/24 18:47:17;;;;;;;;;;;27.40;91.60;;;26.40;43.49;95634.84;10407232;28;1575;-75
2022/07/24 18:52:20;;;;;;;;;;;27.30;92.40;;;26.25;44.25;95644.09;10413880;28;1486;-73
2022/07/24 18:57:24;;;;;;;;;;;27.10;93.00;;;26.06;44.94;95642.31;10408018;28;1510;-71
2022/07/24 19:02:27;;;;;;;;;;;27.00;93.50;;;25.96;45.11;95636.69;10409905;28;1910;-73
2022/07/24 19:07:32;;;;;;;;;;;26.80;93.40;;;25.80;45.59;95648.72;10410946;28;1477;-71
2022/07/24 19:12:36;;;;;;;;;;;26.60;93.90;;;25.52;46.23;95642.81;10421120;28;1615;-74
2022/07/24 19:17:40;;;;;;;;;;;26.40;94.50;;;25.37;46.88;95654.78;10410508;28;1651;-74
2022/07/24 19:22:44;;;;;;;;;;;26.30;95.00;;;25.26;47.14;95658.19;10419422;28;1914;-71
2022/07/24 19:27:48;;;;;;;;;;;26.20;95.70;;;25.17;47.90;95660.41;10435525;28;1643;-71
2022/07/24 19:32:51;;;;;;;;;;;26.00;96.20;;;25.15;48.17;95664.69;10416378;28;1510;-71
2022/07/24 19:37:54;;;;;;;;;;;26.00;96.70;;;25.00;48.52;95669.13;10425481;28;1422;-71
2022/07/24 19:42:58;;;;;;;;;;;25.90;96.50;;;24.99;48.68;95662.84;10415610;28;1989;-70
2022/07/24 19:48:01;;;;;;;;;;;25.80;97.00;;;24.75;49.78;95668.75;10411866;28;1521;-72
2022/07/24 19:53:05;;;;;;;;;;;25.70;97.30;;;24.64;50.28;95668.56;10419738;28;1560;-71
2022/07/24 19:58:08;;;;;;;;;;;25.50;98.00;;;24.66;50.32;95670.94;10417101;28;1460;-71
2022/07/24 20:03:12;;;;;;;;;;;25.50;98.30;;;24.61;50.54;95668.47;10410160;28;1983;-71
2022/07/24 20:08:15;;;;;;;;;;;25.50;98.70;;;24.48;50.93;95670.63;10420145;28;1536;-70
2022/07/24 20:13:19;;;;;;;;;;;25.30;98.90;;;24.42;51.47;95653.63;10418612;28;1485;-72
2022/07/24 20:18:22;;;;;;;;;;;25.20;99.40;;;24.39;51.27;95656.34;10414911;28;1629;-70
2022/07/24 20:23:25;;;;;;;;;;;25.30;99.60;;;24.28;51.98;95654.16;10427541;28;1985;-70
2022/07/24 20:28:29;;;;;;;;;;;25.10;99.90;;;24.10;52.62;95655.75;10417866;28;1510;-73
2022/07/24 20:33:32;;;;;;;;;;;25.00;99.90;;;24.08;53.33;95649.84;10416298;28;1531;-71
2022/07/24 20:38:35;;;;;;;;;;;25.00;99.90;;;24.05;53.41;95650.59;10415894;28;1504;-77
2022/07/24 20:43:39;;;;;;;;;;;24.90;99.90;;;23.96;54.18;95650.00;10434237;28;1461;-69
2022/07/24 20:48:41;;;;;;;;;;;24.80;99.90;;;23.98;54.43;95647.69;10411641;28;1599;-70
2022/07/24 20:53:45;;;;;;;;;;;24.80;99.90;;;23.91;55.37;95647.53;10423679;28;1538;-70
2022/07/24 20:58:49;;;;;;;;;;;24.70;99.90;;;23.84;55.89;95641.91;10413553;28;2028;-70
2022/07/24 21:03:52;;;;;;;;;;;24.70;99.90;;;23.85;56.25;95638.00;10415581;28;1654;-70
2022/07/24 21:08:56;;;;;;;;;;;24.70;99.90;;;23.75;56.92;95638.59;10416124;28;1497;-71
2022/07/24 21:14:00;;;;;;;;;;;24.60;99.90;;;23.72;57.66;95634.63;10420620;28;1623;-69
2022/07/24 21:19:05;;;;;;;;;;;24.50;99.90;;;23.57;58.83;95636.25;10417994;28;1914;-70
2022/07/24 21:24:08;;;;;;;;;;;24.40;99.90;;;23.56;59.44;95642.91;10417231;28;1505;-71
2022/07/24 21:29:11;;;;;;;;;;;24.40;99.90;;;23.53;59.92;95638.13;10417492;28;1467;-71
2022/07/24 21:34:14;;;;;;;;;;;24.30;99.90;;;23.42;60.72;95640.66;10417470;28;1601;-70
2022/07/24 21:39:18;;;;;;;;;;;24.20;99.90;;;23.30;61.56;95637.25;10415096;28;1902;-70
2022/07/24 21:44:21;;;;;;;;;;;24.10;99.90;;;23.24;62.21;95638.69;10420161;28;1500;-72
2022/07/24 21:49:24;;;;;;;;;;;24.10;99.90;;;23.16;63.09;95635.78;10415608;28;1470;-72
2022/07/24 21:54:28;;;;;;;;;;;24.00;99.90;;;23.04;63.96;95638.63;10420976;28;2113;-70
2022/07/24 21:59:31;;;;;;;;;;;23.90;99.90;;;22.99;64.29;95636.16;10404491;28;1973;-69
2022/07/24 22:04:35;;;;;;;;;;;23.80;99.90;;;22.90;65.11;95641.03;10412580;28;1890;-69
2022/07/24 22:09:38;;;;;;;;;;;23.80;99.90;;;22.87;65.51;95628.84;10409299;28;1874;-69
2022/07/24 22:14:42;;;;;;;;;;;23.70;99.90;;;22.75;66.43;95631.66;10409686;28;1998;-69
2022/07/24 22:19:46;;;;;;;;;;;23.70;99.90;;;22.65;67.17;95626.72;10411660;28;1922;-69
2022/07/24 22:24:50;;;;;;;;;;;23.50;99.90;;;22.61;67.93;95625.84;10401932;28;2064;-71
2022/07/24 22:29:54;;;;;;;;;;;23.50;99.90;;;22.57;68.72;95625.72;10412766;28;1895;-70
2022/07/24 22:34:57;;;;;;;;;;;23.40;99.90;;;22.55;68.89;95627.25;10408952;28;1862;-69
2022/07/24 22:40:03;;;;;;;;;;;23.30;99.90;;;22.43;69.73;95614.44;10409039;28;2114;-70
2022/07/24 22:45:23;;;;;;;;;;;23.30;99.90;;;22.38;70.27;95620.16;10412622;28;1854;-70
2022/07/24 22:50:26;;;;;;;;;;;23.30;99.90;;;22.31;70.74;95620.00;10413866;28;1897;-71
2022/07/24 22:55:30;;;;;;;;;;;23.10;99.90;;;22.25;71.02;95621.41;10416922;28;1981;-69
2022/07/24 23:00:36;;;;;;;;;;;23.10;99.90;;;22.18;72.02;95615.75;10413410;28;1974;-71
2022/07/24 23:05:39;;;;;;;;;;;23.00;99.90;;;22.13;71.95;95617.56;10418250;28;2183;-68
2022/07/24 23:10:43;;;;;;;;;;;22.90;99.90;;;22.11;72.25;95603.47;10414582;28;1982;-70
2022/07/24 23:15:47;;;;;;;;;;;22.90;99.90;;;22.05;72.64;95602.09;10415648;28;2021;-70
2022/07/24 23:20:51;;;;;;;;;;;22.90;99.90;;;21.96;73.51;95612.41;10416302;28;1982;-71
2022/07/24 23:25:54;;;;;;;;;;;22.80;99.90;;;21.85;74.34;95600.38;10414005;28;1965;-74
2022/07/24 23:30:57;;;;;;;;;;;22.80;99.90;;;21.78;74.79;95601.00;10417752;28;1961;-70
2022/07/24 23:36:00;;;;;;;;;;;22.70;99.90;;;21.81;75.05;95592.06;10409487;28;2178;-70